Huvudsida
METAR-TAF:

METAR-TAF

Flygplatser :

Nukus, Uzbekistan

latitud: 42-28-48N, longitud: 059-37-48E, höjd: 77 m

Aktuellt väderrapport

Denna rapport gjordes för 49 minuter sedan, klockan 23:00 UTC
Vind 4 kt från ost/nordost
Temperatur 20°C
Fuktighet 18%
Tryck 1014 hPa
Sikt 10 km eller mer
Inga moln under 1 500 m eller inga cumulonimbus

METAR: UTNN 262300Z 06004KT CAVOK 20/M05 Q1014 R15/CLRD60 NOSIG

Tid: 04:49 (23:49 UTC)

Väderprognos

Denna rapport gjordes för 49 minuter sedan, klockan 23:00 UTC
Prognos gäller från 27 kl. 00 UTC till 27 kl. 24 UTC
Vind 8 kt från ost i byarna ända upp till 18 kt
Sikt 10 km eller mer
Inga moln under 1 500 m eller inga cumulonimbus
Temporärt
från 27 kl. 00 UTC till 27 kl. 08 UTC
Vind 8 kt från nordost i byarna ända upp till 18 kt

TAF: UTNN 262300Z 2700/2724 10008G18KT CAVOK TEMPO 2700/2708 05008G18KT

Aktuella väderrapporter och prognoser från 4000 flygplatser (METAR- och TAF-rapporter).

De tillgängliga stationerna syns som gula och röda prickar på kartan.

För musen över prickarna för att se namnen på stationerna.

Klicka sedan för att få väderrapporter och prognoser.

För att ändra kartan: Klicka på de gröna knapparna med ett svart kors på för att zooma in; den gröna knappen med ett streck på för att zooma ut; eller på de gröna pilarna för angränsande kartor.


METAR-TAF: